sensor_id;sensor_type;location;lat;lon;timestamp;temperature;humidity
13470;DHT22;6807;48.682;9.032;2023-04-24T00:01:02;9.20;1.00
13470;DHT22;6807;48.682;9.032;2023-04-24T00:03:30;9.20;1.00
13470;DHT22;6807;48.682;9.032;2023-04-24T00:05:58;9.20;99.90
13470;DHT22;6807;48.682;9.032;2023-04-24T00:08:26;9.30;1.00
13470;DHT22;6807;48.682;9.032;2023-04-24T00:10:53;9.20;1.00
13470;DHT22;6807;48.682;9.032;2023-04-24T00:13:20;9.30;1.00
13470;DHT22;6807;48.682;9.032;2023-04-24T00:15:47;9.30;99.90
13470;DHT22;6807;48.682;9.032;2023-04-24T00:18:14;9.30;99.90
13470;DHT22;6807;48.682;9.032;2023-04-24T00:20:42;9.30;99.90
13470;DHT22;6807;48.682;9.032;2023-04-24T00:23:09;9.20;99.90
13470;DHT22;6807;48.682;9.032;2023-04-24T00:25:36;9.30;99.90
13470;DHT22;6807;48.682;9.032;2023-04-24T00:28:03;9.30;99.90
13470;DHT22;6807;48.682;9.032;2023-04-24T00:30:30;9.20;99.90
13470;DHT22;6807;48.682;9.032;2023-04-24T00:32:57;9.40;99.90
13470;DHT22;6807;48.682;9.032;2023-04-24T00:35:24;9.40;99.90
13470;DHT22;6807;48.682;9.032;2023-04-24T00:37:52;9.40;99.90
13470;DHT22;6807;48.682;9.032;2023-04-24T00:40:19;9.40;99.90
13470;DHT22;6807;48.682;9.032;2023-04-24T00:42:46;9.40;99.90
13470;DHT22;6807;48.682;9.032;2023-04-24T00:45:13;9.40;99.90
13470;DHT22;6807;48.682;9.032;2023-04-24T00:47:41;9.40;99.90
13470;DHT22;6807;48.682;9.032;2023-04-24T00:50:09;9.40;99.90
13470;DHT22;6807;48.682;9.032;2023-04-24T00:52:36;9.40;99.90
13470;DHT22;6807;48.682;9.032;2023-04-24T00:55:08;9.40;99.90
13470;DHT22;6807;48.682;9.032;2023-04-24T00:57:36;9.40;99.90
13470;DHT22;6807;48.682;9.032;2023-04-24T01:00:04;9.50;99.90
13470;DHT22;6807;48.682;9.032;2023-04-24T01:02:33;9.50;99.90
13470;DHT22;6807;48.682;9.032;2023-04-24T01:05:00;9.50;99.90
13470;DHT22;6807;48.682;9.032;2023-04-24T01:07:28;9.50;99.90
13470;DHT22;6807;48.682;9.032;2023-04-24T01:09:55;9.60;99.90
13470;DHT22;6807;48.682;9.032;2023-04-24T01:12:24;9.60;99.90
13470;DHT22;6807;48.682;9.032;2023-04-24T01:14:51;9.60;99.90
13470;DHT22;6807;48.682;9.032;2023-04-24T01:17:18;9.60;99.90
13470;DHT22;6807;48.682;9.032;2023-04-24T01:19:45;9.60;99.90
13470;DHT22;6807;48.682;9.032;2023-04-24T01:22:15;9.60;99.90
13470;DHT22;6807;48.682;9.032;2023-04-24T01:24:42;9.70;99.90
13470;DHT22;6807;48.682;9.032;2023-04-24T01:27:10;9.70;99.90
13470;DHT22;6807;48.682;9.032;2023-04-24T01:29:37;9.60;99.90
13470;DHT22;6807;48.682;9.032;2023-04-24T01:32:05;9.60;99.90
13470;DHT22;6807;48.682;9.032;2023-04-24T01:34:32;9.60;99.90
13470;DHT22;6807;48.682;9.032;2023-04-24T01:37:00;9.60;99.90
13470;DHT22;6807;48.682;9.032;2023-04-24T01:39:28;9.60;99.90
13470;DHT22;6807;48.682;9.032;2023-04-24T01:41:55;9.50;99.90
13470;DHT22;6807;48.682;9.032;2023-04-24T01:44:23;9.60;99.90
13470;DHT22;6807;48.682;9.032;2023-04-24T01:46:50;9.50;99.90
13470;DHT22;6807;48.682;9.032;2023-04-24T01:49:17;9.60;99.90
13470;DHT22;6807;48.682;9.032;2023-04-24T01:51:44;9.50;99.90
13470;DHT22;6807;48.682;9.032;2023-04-24T01:54:11;9.50;99.90
13470;DHT22;6807;48.682;9.032;2023-04-24T01:56:41;9.40;1.00
13470;DHT22;6807;48.682;9.032;2023-04-24T01:59:09;9.40;1.00
13470;DHT22;6807;48.682;9.032;2023-04-24T02:01:37;9.50;1.00
13470;DHT22;6807;48.682;9.032;2023-04-24T02:04:04;9.40;1.00
13470;DHT22;6807;48.682;9.032;2023-04-24T02:06:31;9.40;1.00
13470;DHT22;6807;48.682;9.032;2023-04-24T02:08:58;9.30;1.00
13470;DHT22;6807;48.682;9.032;2023-04-24T02:11:25;9.30;1.00
13470;DHT22;6807;48.682;9.032;2023-04-24T02:13:54;9.30;1.00
13470;DHT22;6807;48.682;9.032;2023-04-24T02:16:21;9.30;1.00
13470;DHT22;6807;48.682;9.032;2023-04-24T02:18:48;9.20;1.00
13470;DHT22;6807;48.682;9.032;2023-04-24T02:21:15;9.20;1.00
13470;DHT22;6807;48.682;9.032;2023-04-24T02:23:42;9.20;1.00
13470;DHT22;6807;48.682;9.032;2023-04-24T02:26:09;9.20;1.00
13470;DHT22;6807;48.682;9.032;2023-04-24T02:28:36;9.20;1.00
13470;DHT22;6807;48.682;9.032;2023-04-24T02:31:04;9.20;1.00
13470;DHT22;6807;48.682;9.032;2023-04-24T02:33:31;9.20;1.00
13470;DHT22;6807;48.682;9.032;2023-04-24T02:35:58;9.20;1.00
13470;DHT22;6807;48.682;9.032;2023-04-24T02:38:26;9.20;1.00
13470;DHT22;6807;48.682;9.032;2023-04-24T02:40:53;9.20;1.00
13470;DHT22;6807;48.682;9.032;2023-04-24T02:43:19;7.80;1.00
13470;DHT22;6807;48.682;9.032;2023-04-24T02:45:46;9.20;1.00
13470;DHT22;6807;48.682;9.032;2023-04-24T02:48:15;9.20;1.00
13470;DHT22;6807;48.682;9.032;2023-04-24T02:50:42;9.20;1.00
13470;DHT22;6807;48.682;9.032;2023-04-24T02:53:09;9.20;1.00
13470;DHT22;6807;48.682;9.032;2023-04-24T02:55:36;9.30;1.00
13470;DHT22;6807;48.682;9.032;2023-04-24T02:58:03;9.30;1.00
13470;DHT22;6807;48.682;9.032;2023-04-24T03:00:30;9.20;1.00
13470;DHT22;6807;48.682;9.032;2023-04-24T03:02:56;9.30;1.00
13470;DHT22;6807;48.682;9.032;2023-04-24T03:05:25;9.30;1.00
13470;DHT22;6807;48.682;9.032;2023-04-24T03:07:52;9.20;1.00
13470;DHT22;6807;48.682;9.032;2023-04-24T03:10:19;9.20;1.00
13470;DHT22;6807;48.682;9.032;2023-04-24T03:12:48;9.10;1.00
13470;DHT22;6807;48.682;9.032;2023-04-24T03:15:14;9.10;1.00
13470;DHT22;6807;48.682;9.032;2023-04-24T03:17:41;9.00;1.00
13470;DHT22;6807;48.682;9.032;2023-04-24T03:20:09;9.00;1.00
13470;DHT22;6807;48.682;9.032;2023-04-24T03:22:37;8.90;1.00
13470;DHT22;6807;48.682;9.032;2023-04-24T03:25:05;8.90;1.00
13470;DHT22;6807;48.682;9.032;2023-04-24T03:27:33;8.90;1.00
13470;DHT22;6807;48.682;9.032;2023-04-24T03:30:00;8.90;1.00
13470;DHT22;6807;48.682;9.032;2023-04-24T03:32:27;8.90;1.00
13470;DHT22;6807;48.682;9.032;2023-04-24T03:34:54;8.90;1.00
13470;DHT22;6807;48.682;9.032;2023-04-24T03:37:21;8.80;1.00
13470;DHT22;6807;48.682;9.032;2023-04-24T03:39:49;8.90;1.00
13470;DHT22;6807;48.682;9.032;2023-04-24T03:42:16;8.70;1.00
13470;DHT22;6807;48.682;9.032;2023-04-24T03:44:43;8.70;1.00
13470;DHT22;6807;48.682;9.032;2023-04-24T03:47:10;8.60;1.00
13470;DHT22;6807;48.682;9.032;2023-04-24T03:49:37;8.50;1.00
13470;DHT22;6807;48.682;9.032;2023-04-24T03:52:03;8.50;1.00
13470;DHT22;6807;48.682;9.032;2023-04-24T03:54:30;8.50;1.00
13470;DHT22;6807;48.682;9.032;2023-04-24T03:56:59;8.40;1.00
13470;DHT22;6807;48.682;9.032;2023-04-24T03:59:27;8.50;1.00
13470;DHT22;6807;48.682;9.032;2023-04-24T04:01:53;8.50;1.00
13470;DHT22;6807;48.682;9.032;2023-04-24T04:04:21;8.50;1.00
13470;DHT22;6807;48.682;9.032;2023-04-24T04:06:48;8.50;1.00
13470;DHT22;6807;48.682;9.032;2023-04-24T04:09:15;8.60;1.00
13470;DHT22;6807;48.682;9.032;2023-04-24T04:11:42;8.60;1.00
13470;DHT22;6807;48.682;9.032;2023-04-24T04:14:10;8.70;1.00
13470;DHT22;6807;48.682;9.032;2023-04-24T04:16:37;8.70;1.00
13470;DHT22;6807;48.682;9.032;2023-04-24T04:19:04;8.80;1.00
13470;DHT22;6807;48.682;9.032;2023-04-24T04:21:31;8.80;1.00
13470;DHT22;6807;48.682;9.032;2023-04-24T04:23:58;8.80;1.00
13470;DHT22;6807;48.682;9.032;2023-04-24T04:26:25;8.80;1.00
13470;DHT22;6807;48.682;9.032;2023-04-24T04:28:53;8.90;1.00
13470;DHT22;6807;48.682;9.032;2023-04-24T04:31:21;8.90;1.00
13470;DHT22;6807;48.682;9.032;2023-04-24T04:33:48;8.50;1.00
13470;DHT22;6807;48.682;9.032;2023-04-24T04:36:15;8.20;1.00
13470;DHT22;6807;48.682;9.032;2023-04-24T04:38:43;7.90;1.00
13470;DHT22;6807;48.682;9.032;2023-04-24T04:41:10;7.90;1.00
13470;DHT22;6807;48.682;9.032;2023-04-24T04:43:37;8.00;1.00
13470;DHT22;6807;48.682;9.032;2023-04-24T04:46:06;8.00;1.00
13470;DHT22;6807;48.682;9.032;2023-04-24T04:48:35;7.90;1.00
13470;DHT22;6807;48.682;9.032;2023-04-24T04:51:02;7.80;1.00
13470;DHT22;6807;48.682;9.032;2023-04-24T04:53:29;7.80;1.00
13470;DHT22;6807;48.682;9.032;2023-04-24T04:55:56;7.90;1.00
13470;DHT22;6807;48.682;9.032;2023-04-24T04:58:23;7.90;1.00
13470;DHT22;6807;48.682;9.032;2023-04-24T05:00:50;7.80;1.00
13470;DHT22;6807;48.682;9.032;2023-04-24T05:03:18;7.80;1.00
13470;DHT22;6807;48.682;9.032;2023-04-24T05:05:47;7.80;1.00
13470;DHT22;6807;48.682;9.032;2023-04-24T05:08:14;7.80;1.00
13470;DHT22;6807;48.682;9.032;2023-04-24T05:10:41;7.80;1.00
13470;DHT22;6807;48.682;9.032;2023-04-24T05:13:08;7.90;1.00
13470;DHT22;6807;48.682;9.032;2023-04-24T05:15:35;7.80;1.00
13470;DHT22;6807;48.682;9.032;2023-04-24T05:18:02;7.90;1.00
13470;DHT22;6807;48.682;9.032;2023-04-24T05:20:29;7.90;1.00
13470;DHT22;6807;48.682;9.032;2023-04-24T05:22:57;7.80;1.00
13470;DHT22;6807;48.682;9.032;2023-04-24T05:25:24;7.90;1.00
13470;DHT22;6807;48.682;9.032;2023-04-24T05:27:51;7.90;1.00
13470;DHT22;6807;48.682;9.032;2023-04-24T05:30:18;8.20;1.00
13470;DHT22;6807;48.682;9.032;2023-04-24T05:32:46;8.00;1.00
13470;DHT22;6807;48.682;9.032;2023-04-24T05:35:13;8.00;1.00
13470;DHT22;6807;48.682;9.032;2023-04-24T05:37:40;8.10;1.00
13470;DHT22;6807;48.682;9.032;2023-04-24T05:40:09;8.10;1.00
13470;DHT22;6807;48.682;9.032;2023-04-24T05:42:37;8.20;1.00
13470;DHT22;6807;48.682;9.032;2023-04-24T05:45:05;8.20;1.00
13470;DHT22;6807;48.682;9.032;2023-04-24T05:47:42;8.30;1.00
13470;DHT22;6807;48.682;9.032;2023-04-24T05:50:14;8.20;99.90
13470;DHT22;6807;48.682;9.032;2023-04-24T05:52:41;9.20;99.90
13470;DHT22;6807;48.682;9.032;2023-04-24T05:55:10;8.20;99.90
13470;DHT22;6807;48.682;9.032;2023-04-24T05:57:37;8.20;99.90
13470;DHT22;6807;48.682;9.032;2023-04-24T06:00:06;8.20;99.90
13470;DHT22;6807;48.682;9.032;2023-04-24T06:02:33;8.20;1.00
13470;DHT22;6807;48.682;9.032;2023-04-24T06:05:00;8.10;99.90
13470;DHT22;6807;48.682;9.032;2023-04-24T06:07:27;8.10;99.90
13470;DHT22;6807;48.682;9.032;2023-04-24T06:09:54;8.20;99.90
13470;DHT22;6807;48.682;9.032;2023-04-24T06:12:22;8.40;99.90
13470;DHT22;6807;48.682;9.032;2023-04-24T06:14:49;8.70;99.90
13470;DHT22;6807;48.682;9.032;2023-04-24T06:17:16;9.50;99.90
13470;DHT22;6807;48.682;9.032;2023-04-24T06:19:43;10.00;99.90
13470;DHT22;6807;48.682;9.032;2023-04-24T06:22:10;10.40;99.90
13470;DHT22;6807;48.682;9.032;2023-04-24T06:24:39;10.80;99.90
13470;DHT22;6807;48.682;9.032;2023-04-24T06:27:06;11.10;82.90
13470;DHT22;6807;48.682;9.032;2023-04-24T06:29:35;11.50;99.90
13470;DHT22;6807;48.682;9.032;2023-04-24T06:32:03;11.80;35.90
13470;DHT22;6807;48.682;9.032;2023-04-24T06:34:29;11.50;12.30
13470;DHT22;6807;48.682;9.032;2023-04-24T06:36:58;10.80;1.00
13470;DHT22;6807;48.682;9.032;2023-04-24T06:39:25;10.80;1.00
13470;DHT22;6807;48.682;9.032;2023-04-24T06:41:52;10.90;1.00
13470;DHT22;6807;48.682;9.032;2023-04-24T06:44:18;11.00;1.00
13470;DHT22;6807;48.682;9.032;2023-04-24T06:46:47;11.70;1.00
13470;DHT22;6807;48.682;9.032;2023-04-24T06:49:14;12.20;1.00
13470;DHT22;6807;48.682;9.032;2023-04-24T06:51:41;12.60;1.00
13470;DHT22;6807;48.682;9.032;2023-04-24T06:54:09;12.30;1.00
13470;DHT22;6807;48.682;9.032;2023-04-24T06:56:36;11.90;1.00
13470;DHT22;6807;48.682;9.032;2023-04-24T06:59:03;11.20;1.00
13470;DHT22;6807;48.682;9.032;2023-04-24T07:01:30;11.00;1.00
13470;DHT22;6807;48.682;9.032;2023-04-24T07:03:58;10.70;1.00
13470;DHT22;6807;48.682;9.032;2023-04-24T07:06:25;10.20;1.00
13470;DHT22;6807;48.682;9.032;2023-04-24T07:08:52;9.90;1.00
13470;DHT22;6807;48.682;9.032;2023-04-24T07:11:21;9.60;15.70
13470;DHT22;6807;48.682;9.032;2023-04-24T07:13:48;9.60;28.70
13470;DHT22;6807;48.682;9.032;2023-04-24T07:16:15;9.50;1.00
13470;DHT22;6807;48.682;9.032;2023-04-24T07:18:42;9.20;21.90
13470;DHT22;6807;48.682;9.032;2023-04-24T07:21:10;9.00;55.60
13470;DHT22;6807;48.682;9.032;2023-04-24T07:23:37;8.90;57.90
13470;DHT22;6807;48.682;9.032;2023-04-24T07:26:06;9.20;99.90
13470;DHT22;6807;48.682;9.032;2023-04-24T07:28:33;9.60;99.90
13470;DHT22;6807;48.682;9.032;2023-04-24T07:31:00;10.10;4.30
13470;DHT22;6807;48.682;9.032;2023-04-24T07:33:27;11.50;1.00
13470;DHT22;6807;48.682;9.032;2023-04-24T07:35:54;12.50;1.00
13470;DHT22;6807;48.682;9.032;2023-04-24T07:38:23;12.60;1.00
13470;DHT22;6807;48.682;9.032;2023-04-24T07:40:51;12.20;1.00
13470;DHT22;6807;48.682;9.032;2023-04-24T07:43:20;12.60;1.00
13470;DHT22;6807;48.682;9.032;2023-04-24T07:45:47;12.90;1.00
13470;DHT22;6807;48.682;9.032;2023-04-24T07:48:14;12.90;1.00
13470;DHT22;6807;48.682;9.032;2023-04-24T07:50:41;13.70;1.00
13470;DHT22;6807;48.682;9.032;2023-04-24T07:53:08;13.40;1.00
13470;DHT22;6807;48.682;9.032;2023-04-24T07:55:37;12.30;1.00
13470;DHT22;6807;48.682;9.032;2023-04-24T07:58:04;12.40;1.00
13470;DHT22;6807;48.682;9.032;2023-04-24T08:00:31;11.90;1.00
13470;DHT22;6807;48.682;9.032;2023-04-24T08:02:58;12.10;1.00
13470;DHT22;6807;48.682;9.032;2023-04-24T08:05:25;12.20;1.00
13470;DHT22;6807;48.682;9.032;2023-04-24T08:07:54;11.70;1.00
13470;DHT22;6807;48.682;9.032;2023-04-24T08:10:21;11.30;1.00
13470;DHT22;6807;48.682;9.032;2023-04-24T08:12:49;11.10;1.00
13470;DHT22;6807;48.682;9.032;2023-04-24T08:15:16;11.40;1.00
13470;DHT22;6807;48.682;9.032;2023-04-24T08:17:43;11.50;1.00
13470;DHT22;6807;48.682;9.032;2023-04-24T08:20:11;11.60;1.00
13470;DHT22;6807;48.682;9.032;2023-04-24T08:22:39;12.40;1.00
13470;DHT22;6807;48.682;9.032;2023-04-24T08:25:07;12.60;1.00
13470;DHT22;6807;48.682;9.032;2023-04-24T08:27:34;13.00;1.00
13470;DHT22;6807;48.682;9.032;2023-04-24T08:30:04;13.60;1.00
13470;DHT22;6807;48.682;9.032;2023-04-24T08:32:31;14.20;1.00
13470;DHT22;6807;48.682;9.032;2023-04-24T08:34:59;15.00;1.00
13470;DHT22;6807;48.682;9.032;2023-04-24T08:37:26;14.70;1.00
13470;DHT22;6807;48.682;9.032;2023-04-24T08:39:54;12.90;1.00
13470;DHT22;6807;48.682;9.032;2023-04-24T08:42:21;11.70;1.00
13470;DHT22;6807;48.682;9.032;2023-04-24T08:44:49;11.80;1.00
13470;DHT22;6807;48.682;9.032;2023-04-24T08:47:18;11.10;1.00
13470;DHT22;6807;48.682;9.032;2023-04-24T08:49:48;10.90;1.00
13470;DHT22;6807;48.682;9.032;2023-04-24T08:52:16;11.00;1.00
13470;DHT22;6807;48.682;9.032;2023-04-24T08:54:45;11.20;1.00
13470;DHT22;6807;48.682;9.032;2023-04-24T08:57:14;11.00;1.00
13470;DHT22;6807;48.682;9.032;2023-04-24T08:59:43;11.40;1.00
13470;DHT22;6807;48.682;9.032;2023-04-24T09:02:11;12.40;1.00
13470;DHT22;6807;48.682;9.032;2023-04-24T09:04:40;12.50;1.00
13470;DHT22;6807;48.682;9.032;2023-04-24T09:07:08;12.10;1.00
13470;DHT22;6807;48.682;9.032;2023-04-24T09:09:38;12.10;1.00
13470;DHT22;6807;48.682;9.032;2023-04-24T09:12:06;12.10;1.00
13470;DHT22;6807;48.682;9.032;2023-04-24T09:14:34;11.60;1.00
13470;DHT22;6807;48.682;9.032;2023-04-24T09:17:04;11.10;1.00
13470;DHT22;6807;48.682;9.032;2023-04-24T09:19:33;12.30;1.00
13470;DHT22;6807;48.682;9.032;2023-04-24T09:22:04;13.00;1.00
13470;DHT22;6807;48.682;9.032;2023-04-24T09:24:31;14.10;1.00
13470;DHT22;6807;48.682;9.032;2023-04-24T09:26:58;13.30;1.00
13470;DHT22;6807;48.682;9.032;2023-04-24T09:29:27;13.10;1.00
13470;DHT22;6807;48.682;9.032;2023-04-24T09:31:54;14.50;99.90
13470;DHT22;6807;48.682;9.032;2023-04-24T09:34:22;15.80;1.00
13470;DHT22;6807;48.682;9.032;2023-04-24T09:36:50;16.50;99.90
13470;DHT22;6807;48.682;9.032;2023-04-24T09:39:18;17.70;1.00
13470;DHT22;6807;48.682;9.032;2023-04-24T09:41:48;16.30;99.90
13470;DHT22;6807;48.682;9.032;2023-04-24T09:44:16;14.50;99.90
13470;DHT22;6807;48.682;9.032;2023-04-24T09:46:49;14.00;99.90
13470;DHT22;6807;48.682;9.032;2023-04-24T09:49:22;12.70;99.90
13470;DHT22;6807;48.682;9.032;2023-04-24T09:51:49;13.10;99.90
13470;DHT22;6807;48.682;9.032;2023-04-24T09:54:18;13.00;99.90
13470;DHT22;6807;48.682;9.032;2023-04-24T09:56:47;12.10;99.90
13470;DHT22;6807;48.682;9.032;2023-04-24T09:59:15;11.70;99.90
13470;DHT22;6807;48.682;9.032;2023-04-24T10:01:44;11.60;99.90
13470;DHT22;6807;48.682;9.032;2023-04-24T10:04:34;12.80;99.90
13470;DHT22;6807;48.682;9.032;2023-04-24T10:07:03;14.50;99.90
13470;DHT22;6807;48.682;9.032;2023-04-24T10:09:36;16.10;99.90
13470;DHT22;6807;48.682;9.032;2023-04-24T10:12:04;16.50;99.90
13470;DHT22;6807;48.682;9.032;2023-04-24T10:14:31;17.40;99.90
13470;DHT22;6807;48.682;9.032;2023-04-24T10:16:58;16.40;99.90
13470;DHT22;6807;48.682;9.032;2023-04-24T10:19:26;16.10;99.90
13470;DHT22;6807;48.682;9.032;2023-04-24T10:21:53;15.30;99.90
13470;DHT22;6807;48.682;9.032;2023-04-24T10:24:21;15.10;99.90
13470;DHT22;6807;48.682;9.032;2023-04-24T10:26:49;13.60;99.90
13470;DHT22;6807;48.682;9.032;2023-04-24T10:29:17;13.50;99.90
13470;DHT22;6807;48.682;9.032;2023-04-24T10:31:45;12.50;99.90
13470;DHT22;6807;48.682;9.032;2023-04-24T10:34:13;12.00;99.90
13470;DHT22;6807;48.682;9.032;2023-04-24T10:36:45;12.10;99.90
13470;DHT22;6807;48.682;9.032;2023-04-24T10:39:13;12.90;99.90
13470;DHT22;6807;48.682;9.032;2023-04-24T10:41:41;13.60;99.90
13470;DHT22;6807;48.682;9.032;2023-04-24T10:44:11;13.40;99.90
13470;DHT22;6807;48.682;9.032;2023-04-24T10:46:43;12.80;99.90
13470;DHT22;6807;48.682;9.032;2023-04-24T10:49:10;13.10;99.90
13470;DHT22;6807;48.682;9.032;2023-04-24T10:51:48;12.10;99.90
13470;DHT22;6807;48.682;9.032;2023-04-24T10:54:26;12.00;99.90
13470;DHT22;6807;48.682;9.032;2023-04-24T10:57:25;12.10;99.90
13470;DHT22;6807;48.682;9.032;2023-04-24T11:03:27;12.80;99.90
13470;DHT22;6807;48.682;9.032;2023-04-24T11:06:00;13.00;99.90
13470;DHT22;6807;48.682;9.032;2023-04-24T11:08:29;13.10;99.90
13470;DHT22;6807;48.682;9.032;2023-04-24T11:11:01;13.20;99.90
13470;DHT22;6807;48.682;9.032;2023-04-24T11:16:27;13.10;99.90
13470;DHT22;6807;48.682;9.032;2023-04-24T11:19:02;12.10;99.90
13470;DHT22;6807;48.682;9.032;2023-04-24T11:21:40;12.00;99.90
13470;DHT22;6807;48.682;9.032;2023-04-24T11:24:28;12.00;99.90
13470;DHT22;6807;48.682;9.032;2023-04-24T11:26:57;11.80;99.90
13470;DHT22;6807;48.682;9.032;2023-04-24T11:29:39;11.70;99.90
13470;DHT22;6807;48.682;9.032;2023-04-24T11:32:23;11.10;99.90
13470;DHT22;6807;48.682;9.032;2023-04-24T11:34:54;11.20;1.00
13470;DHT22;6807;48.682;9.032;2023-04-24T11:37:22;11.10;99.90
13470;DHT22;6807;48.682;9.032;2023-04-24T11:39:51;11.00;99.90
13470;DHT22;6807;48.682;9.032;2023-04-24T11:42:20;11.10;99.90
13470;DHT22;6807;48.682;9.032;2023-04-24T11:44:48;10.90;99.90
13470;DHT22;6807;48.682;9.032;2023-04-24T11:47:15;11.00;99.90
13470;DHT22;6807;48.682;9.032;2023-04-24T11:49:51;11.00;99.90
13470;DHT22;6807;48.682;9.032;2023-04-24T11:52:19;11.50;99.90
13470;DHT22;6807;48.682;9.032;2023-04-24T11:54:49;12.00;1.00
13470;DHT22;6807;48.682;9.032;2023-04-24T11:57:16;12.30;99.90
13470;DHT22;6807;48.682;9.032;2023-04-24T11:59:45;12.20;99.90
13470;DHT22;6807;48.682;9.032;2023-04-24T12:02:20;11.90;99.90
13470;DHT22;6807;48.682;9.032;2023-04-24T12:04:48;11.60;99.90
13470;DHT22;6807;48.682;9.032;2023-04-24T12:07:16;11.20;99.90
13470;DHT22;6807;48.682;9.032;2023-04-24T12:09:45;11.00;99.90
13470;DHT22;6807;48.682;9.032;2023-04-24T12:12:12;10.80;99.90
13470;DHT22;6807;48.682;9.032;2023-04-24T12:14:44;10.50;99.90
13470;DHT22;6807;48.682;9.032;2023-04-24T12:17:11;10.70;99.90
13470;DHT22;6807;48.682;9.032;2023-04-24T12:19:45;10.90;99.90
13470;DHT22;6807;48.682;9.032;2023-04-24T12:22:13;11.00;99.90
13470;DHT22;6807;48.682;9.032;2023-04-24T12:24:57;11.50;99.90
13470;DHT22;6807;48.682;9.032;2023-04-24T12:27:24;12.40;49.30
13470;DHT22;6807;48.682;9.032;2023-04-24T12:29:52;12.80;1.00
13470;DHT22;6807;48.682;9.032;2023-04-24T12:32:19;14.20;1.00
13470;DHT22;6807;48.682;9.032;2023-04-24T12:34:46;13.50;1.00
13470;DHT22;6807;48.682;9.032;2023-04-24T12:37:12;12.90;1.00
13470;DHT22;6807;48.682;9.032;2023-04-24T12:39:58;12.30;1.00
13470;DHT22;6807;48.682;9.032;2023-04-24T12:42:26;12.80;1.00
13470;DHT22;6807;48.682;9.032;2023-04-24T12:44:56;12.40;1.00
13470;DHT22;6807;48.682;9.032;2023-04-24T12:47:25;12.50;1.00
13470;DHT22;6807;48.682;9.032;2023-04-24T12:49:52;12.30;1.00
13470;DHT22;6807;48.682;9.032;2023-04-24T12:52:20;12.50;1.00
13470;DHT22;6807;48.682;9.032;2023-04-24T12:54:47;11.50;1.00
13470;DHT22;6807;48.682;9.032;2023-04-24T12:57:16;11.40;1.00
13470;DHT22;6807;48.682;9.032;2023-04-24T12:59:43;11.10;1.00
13470;DHT22;6807;48.682;9.032;2023-04-24T13:02:10;11.20;1.00
13470;DHT22;6807;48.682;9.032;2023-04-24T13:04:37;11.10;1.00
13470;DHT22;6807;48.682;9.032;2023-04-24T13:07:05;11.20;1.00
13470;DHT22;6807;48.682;9.032;2023-04-24T13:09:33;11.20;1.00
13470;DHT22;6807;48.682;9.032;2023-04-24T13:12:01;10.90;1.00
13470;DHT22;6807;48.682;9.032;2023-04-24T13:14:29;10.90;1.00
13470;DHT22;6807;48.682;9.032;2023-04-24T13:16:56;10.80;1.00
13470;DHT22;6807;48.682;9.032;2023-04-24T13:19:24;11.00;1.00
13470;DHT22;6807;48.682;9.032;2023-04-24T13:21:51;11.00;1.00
13470;DHT22;6807;48.682;9.032;2023-04-24T13:24:18;10.70;1.00
13470;DHT22;6807;48.682;9.032;2023-04-24T13:26:45;10.70;1.00
13470;DHT22;6807;48.682;9.032;2023-04-24T13:29:12;10.30;1.00
13470;DHT22;6807;48.682;9.032;2023-04-24T13:31:40;10.00;1.00
13470;DHT22;6807;48.682;9.032;2023-04-24T13:34:07;10.00;1.00
13470;DHT22;6807;48.682;9.032;2023-04-24T13:36:34;9.90;1.00
13470;DHT22;6807;48.682;9.032;2023-04-24T13:39:01;9.90;1.00
13470;DHT22;6807;48.682;9.032;2023-04-24T13:41:29;9.60;1.00
13470;DHT22;6807;48.682;9.032;2023-04-24T13:43:56;9.60;1.00
13470;DHT22;6807;48.682;9.032;2023-04-24T13:46:23;9.60;1.00
13470;DHT22;6807;48.682;9.032;2023-04-24T13:48:51;9.80;1.00
13470;DHT22;6807;48.682;9.032;2023-04-24T13:51:19;10.60;1.00
13470;DHT22;6807;48.682;9.032;2023-04-24T13:53:45;10.60;1.00
13470;DHT22;6807;48.682;9.032;2023-04-24T13:56:12;10.70;1.00
13470;DHT22;6807;48.682;9.032;2023-04-24T13:58:39;10.70;1.00
13470;DHT22;6807;48.682;9.032;2023-04-24T14:01:07;10.50;1.00
13470;DHT22;6807;48.682;9.032;2023-04-24T14:03:34;10.60;1.00
13470;DHT22;6807;48.682;9.032;2023-04-24T14:06:02;10.60;1.00
13470;DHT22;6807;48.682;9.032;2023-04-24T14:08:29;10.30;1.00
13470;DHT22;6807;48.682;9.032;2023-04-24T14:10:56;10.20;1.00
13470;DHT22;6807;48.682;9.032;2023-04-24T14:13:23;10.10;1.00
13470;DHT22;6807;48.682;9.032;2023-04-24T14:15:51;10.10;1.00
13470;DHT22;6807;48.682;9.032;2023-04-24T14:18:19;9.60;1.00
13470;DHT22;6807;48.682;9.032;2023-04-24T14:20:45;9.50;83.00
13470;DHT22;6807;48.682;9.032;2023-04-24T14:23:14;9.40;99.90
13470;DHT22;6807;48.682;9.032;2023-04-24T14:25:41;9.50;99.90
13470;DHT22;6807;48.682;9.032;2023-04-24T14:28:08;10.10;99.90
13470;DHT22;6807;48.682;9.032;2023-04-24T14:30:34;10.50;99.90
13470;DHT22;6807;48.682;9.032;2023-04-24T14:33:03;10.80;99.90
13470;DHT22;6807;48.682;9.032;2023-04-24T14:35:30;10.40;99.90
13470;DHT22;6807;48.682;9.032;2023-04-24T14:37:59;10.10;91.90
13470;DHT22;6807;48.682;9.032;2023-04-24T14:40:28;10.30;99.90
13470;DHT22;6807;48.682;9.032;2023-04-24T14:42:55;10.60;99.90
13470;DHT22;6807;48.682;9.032;2023-04-24T14:45:23;10.90;99.90
13470;DHT22;6807;48.682;9.032;2023-04-24T14:47:50;11.20;99.90
13470;DHT22;6807;48.682;9.032;2023-04-24T14:50:17;11.50;22.10
13470;DHT22;6807;48.682;9.032;2023-04-24T14:52:44;11.90;13.20
13470;DHT22;6807;48.682;9.032;2023-04-24T14:55:12;11.60;5.30
13470;DHT22;6807;48.682;9.032;2023-04-24T14:57:40;11.30;1.00
13470;DHT22;6807;48.682;9.032;2023-04-24T15:00:08;11.10;1.00
13470;DHT22;6807;48.682;9.032;2023-04-24T15:02:35;11.20;1.00
13470;DHT22;6807;48.682;9.032;2023-04-24T15:05:07;10.90;1.00
13470;DHT22;6807;48.682;9.032;2023-04-24T15:07:37;10.80;1.00
13470;DHT22;6807;48.682;9.032;2023-04-24T15:10:07;10.90;1.00
13470;DHT22;6807;48.682;9.032;2023-04-24T15:12:52;10.80;1.00
13470;DHT22;6807;48.682;9.032;2023-04-24T15:15:21;10.70;1.00
13470;DHT22;6807;48.682;9.032;2023-04-24T15:17:48;10.60;1.00
13470;DHT22;6807;48.682;9.032;2023-04-24T15:20:15;10.60;1.00
13470;DHT22;6807;48.682;9.032;2023-04-24T15:22:43;10.30;1.00
13470;DHT22;6807;48.682;9.032;2023-04-24T15:25:11;10.20;1.00
13470;DHT22;6807;48.682;9.032;2023-04-24T15:27:42;10.10;1.00
13470;DHT22;6807;48.682;9.032;2023-04-24T15:30:11;10.20;1.00
13470;DHT22;6807;48.682;9.032;2023-04-24T15:32:40;10.10;1.00
13470;DHT22;6807;48.682;9.032;2023-04-24T15:35:07;10.00;1.00
13470;DHT22;6807;48.682;9.032;2023-04-24T15:37:35;10.10;1.00
13470;DHT22;6807;48.682;9.032;2023-04-24T15:40:02;10.10;1.00
13470;DHT22;6807;48.682;9.032;2023-04-24T15:42:32;10.30;1.00
13470;DHT22;6807;48.682;9.032;2023-04-24T15:44:59;10.30;1.00
13470;DHT22;6807;48.682;9.032;2023-04-24T15:47:27;10.40;1.00
13470;DHT22;6807;48.682;9.032;2023-04-24T15:49:54;10.70;1.00
13470;DHT22;6807;48.682;9.032;2023-04-24T15:52:21;10.70;1.00
13470;DHT22;6807;48.682;9.032;2023-04-24T15:54:48;10.80;1.00
13470;DHT22;6807;48.682;9.032;2023-04-24T15:57:15;11.10;1.00
13470;DHT22;6807;48.682;9.032;2023-04-24T15:59:42;11.90;1.00
13470;DHT22;6807;48.682;9.032;2023-04-24T16:02:10;12.10;1.00
13470;DHT22;6807;48.682;9.032;2023-04-24T16:04:44;12.50;1.00
13470;DHT22;6807;48.682;9.032;2023-04-24T16:07:12;11.90;1.00
13470;DHT22;6807;48.682;9.032;2023-04-24T16:09:39;11.50;1.00
13470;DHT22;6807;48.682;9.032;2023-04-24T16:12:07;11.20;1.00
13470;DHT22;6807;48.682;9.032;2023-04-24T16:14:34;11.10;1.00